sensor_id;sensor_type;location;lat;lon;timestamp;pressure;altitude;pressure_sealevel;temperature;humidity
46886;BME280;32622;48.202;11.326;2024-02-15T00:01:27;1024.28;;;9.58;32.43
46886;BME280;32622;48.202;11.326;2024-02-15T00:03:29;1024.21;;;9.96;32.12
46886;BME280;32622;48.202;11.326;2024-02-15T00:05:31;1024.23;;;9.71;32.25
46886;BME280;32622;48.202;11.326;2024-02-15T00:07:33;1024.35;;;9.26;32.04
46886;BME280;32622;48.202;11.326;2024-02-15T00:09:35;1024.09;;;10.34;32.31
46886;BME280;32622;48.202;11.326;2024-02-15T00:11:38;1024.16;;;9.99;32.10
46886;BME280;32622;48.202;11.326;2024-02-15T00:13:40;1024.23;;;9.71;32.33
46886;BME280;32622;48.202;11.326;2024-02-15T00:15:42;1024.28;;;9.43;32.56
46886;BME280;32622;48.202;11.326;2024-02-15T00:17:44;1024.37;;;9.10;33.40
46886;BME280;32622;48.202;11.326;2024-02-15T00:19:46;1024.33;;;9.14;33.10
46886;BME280;32622;48.202;11.326;2024-02-15T00:21:48;1024.32;;;9.13;32.92
46886;BME280;32622;48.202;11.326;2024-02-15T00:23:50;1024.27;;;9.19;32.78
46886;BME280;32622;48.202;11.326;2024-02-15T00:25:52;1024.28;;;9.21;32.79
46886;BME280;32622;48.202;11.326;2024-02-15T00:27:54;1024.33;;;9.16;32.85
46886;BME280;32622;48.202;11.326;2024-02-15T00:29:57;1024.36;;;9.05;32.80
46886;BME280;32622;48.202;11.326;2024-02-15T00:31:59;1024.38;;;9.09;32.91
46886;BME280;32622;48.202;11.326;2024-02-15T00:34:01;1024.32;;;9.36;32.71
46886;BME280;32622;48.202;11.326;2024-02-15T00:36:03;1024.36;;;9.16;32.84
46886;BME280;32622;48.202;11.326;2024-02-15T00:38:05;1024.40;;;9.09;32.86
46886;BME280;32622;48.202;11.326;2024-02-15T00:40:08;1024.32;;;9.49;32.76
46886;BME280;32622;48.202;11.326;2024-02-15T00:42:10;1024.38;;;9.35;32.48
46886;BME280;32622;48.202;11.326;2024-02-15T00:44:12;1024.44;;;9.19;32.65
46886;BME280;32622;48.202;11.326;2024-02-15T00:46:16;1024.40;;;9.16;32.62
46886;BME280;32622;48.202;11.326;2024-02-15T00:48:18;1024.43;;;9.08;32.69
46886;BME280;32622;48.202;11.326;2024-02-15T00:50:20;1024.39;;;9.27;32.87
46886;BME280;32622;48.202;11.326;2024-02-15T00:52:23;1024.40;;;9.19;32.63
46886;BME280;32622;48.202;11.326;2024-02-15T00:54:25;1024.29;;;9.50;32.58
46886;BME280;32622;48.202;11.326;2024-02-15T00:56:27;1024.39;;;9.17;32.66
46886;BME280;32622;48.202;11.326;2024-02-15T00:58:30;1024.51;;;8.60;33.13
46886;BME280;32622;48.202;11.326;2024-02-15T01:00:32;1024.37;;;9.24;32.29
46886;BME280;32622;48.202;11.326;2024-02-15T01:02:34;1024.44;;;9.10;32.72
46886;BME280;32622;48.202;11.326;2024-02-15T01:04:36;1024.42;;;9.20;33.27
46886;BME280;32622;48.202;11.326;2024-02-15T01:06:38;1024.43;;;9.17;33.45
46886;BME280;32622;48.202;11.326;2024-02-15T01:08:40;1024.63;;;8.40;33.45
46886;BME280;32622;48.202;11.326;2024-02-15T01:10:42;1024.47;;;9.09;32.81
46886;BME280;32622;48.202;11.326;2024-02-15T01:12:55;1024.42;;;9.21;33.01
46886;BME280;32622;48.202;11.326;2024-02-15T01:14:57;1024.49;;;8.79;32.89
46886;BME280;32622;48.202;11.326;2024-02-15T01:16:59;1024.40;;;9.15;33.04
46886;BME280;32622;48.202;11.326;2024-02-15T01:19:01;1024.41;;;9.22;32.90
46886;BME280;32622;48.202;11.326;2024-02-15T01:21:04;1024.52;;;8.67;32.90
46886;BME280;32622;48.202;11.326;2024-02-15T01:23:06;1024.55;;;8.57;32.89
46886;BME280;32622;48.202;11.326;2024-02-15T01:25:08;1024.48;;;8.97;32.95
46886;BME280;32622;48.202;11.326;2024-02-15T01:27:10;1024.60;;;8.52;32.85
46886;BME280;32622;48.202;11.326;2024-02-15T01:29:12;1024.47;;;8.77;32.03
46886;BME280;32622;48.202;11.326;2024-02-15T01:31:15;1024.51;;;8.63;32.47
46886;BME280;32622;48.202;11.326;2024-02-15T01:33:17;1024.47;;;8.81;32.51
46886;BME280;32622;48.202;11.326;2024-02-15T01:35:19;1024.43;;;8.94;32.73
46886;BME280;32622;48.202;11.326;2024-02-15T01:37:21;1024.38;;;9.02;32.61
46886;BME280;32622;48.202;11.326;2024-02-15T01:39:23;1024.39;;;8.81;32.88
46886;BME280;32622;48.202;11.326;2024-02-15T01:41:25;1024.45;;;8.60;33.15
46886;BME280;32622;48.202;11.326;2024-02-15T01:43:28;1024.54;;;7.91;33.95
46886;BME280;32622;48.202;11.326;2024-02-15T01:45:30;1024.55;;;7.74;33.83
46886;BME280;32622;48.202;11.326;2024-02-15T01:47:32;1024.45;;;8.21;33.72
46886;BME280;32622;48.202;11.326;2024-02-15T01:49:34;1024.44;;;8.17;33.68
46886;BME280;32622;48.202;11.326;2024-02-15T01:51:36;1024.34;;;8.64;33.44
46886;BME280;32622;48.202;11.326;2024-02-15T01:53:39;1024.44;;;8.15;33.86
46886;BME280;32622;48.202;11.326;2024-02-15T01:55:42;1024.44;;;8.22;33.96
46886;BME280;32622;48.202;11.326;2024-02-15T01:57:44;1024.51;;;7.86;33.80
46886;BME280;32622;48.202;11.326;2024-02-15T01:59:46;1024.44;;;8.19;33.96
46886;BME280;32622;48.202;11.326;2024-02-15T02:01:49;1024.39;;;8.27;33.90
46886;BME280;32622;48.202;11.326;2024-02-15T02:03:51;1024.42;;;8.03;33.79
46886;BME280;32622;48.202;11.326;2024-02-15T02:05:54;1024.37;;;8.22;33.99
46886;BME280;32622;48.202;11.326;2024-02-15T02:07:56;1024.34;;;8.33;33.86
46886;BME280;32622;48.202;11.326;2024-02-15T02:09:58;1024.37;;;8.32;33.88
46886;BME280;32622;48.202;11.326;2024-02-15T02:12:00;1024.47;;;7.89;33.94
46886;BME280;32622;48.202;11.326;2024-02-15T02:14:02;1024.37;;;8.30;33.99
46886;BME280;32622;48.202;11.326;2024-02-15T02:16:05;1024.40;;;8.26;33.94
46886;BME280;32622;48.202;11.326;2024-02-15T02:18:25;1024.47;;;8.11;34.02
46886;BME280;32622;48.202;11.326;2024-02-15T02:20:27;1024.52;;;7.88;33.90
46886;BME280;32622;48.202;11.326;2024-02-15T02:22:30;1024.39;;;8.28;33.76
46886;BME280;32622;48.202;11.326;2024-02-15T02:24:34;1024.40;;;8.18;34.00
46886;BME280;32622;48.202;11.326;2024-02-15T02:26:37;1024.47;;;7.80;33.94
46886;BME280;32622;48.202;11.326;2024-02-15T02:28:40;1024.43;;;7.93;33.88
46886;BME280;32622;48.202;11.326;2024-02-15T02:30:42;1024.32;;;8.24;33.94
46886;BME280;32622;48.202;11.326;2024-02-15T02:32:44;1024.29;;;8.27;33.98
46886;BME280;32622;48.202;11.326;2024-02-15T02:34:46;1024.30;;;8.36;33.77
46886;BME280;32622;48.202;11.326;2024-02-15T02:36:48;1024.40;;;8.04;33.69
46886;BME280;32622;48.202;11.326;2024-02-15T02:38:51;1024.28;;;8.32;33.85
46886;BME280;32622;48.202;11.326;2024-02-15T02:40:53;1024.22;;;8.40;33.82
46886;BME280;32622;48.202;11.326;2024-02-15T02:42:56;1024.08;;;8.65;33.61
46886;BME280;32622;48.202;11.326;2024-02-15T02:44:58;1024.18;;;8.37;33.84
46886;BME280;32622;48.202;11.326;2024-02-15T02:47:01;1024.14;;;8.44;33.73
46886;BME280;32622;48.202;11.326;2024-02-15T02:49:03;1024.14;;;8.49;33.61
46886;BME280;32622;48.202;11.326;2024-02-15T02:51:07;1024.18;;;8.27;33.80
46886;BME280;32622;48.202;11.326;2024-02-15T02:53:09;1024.26;;;7.99;33.75
46886;BME280;32622;48.202;11.326;2024-02-15T02:55:11;1024.17;;;8.35;33.67
46886;BME280;32622;48.202;11.326;2024-02-15T02:57:13;1024.27;;;7.95;33.67
46886;BME280;32622;48.202;11.326;2024-02-15T02:59:15;1024.11;;;8.41;33.64
46886;BME280;32622;48.202;11.326;2024-02-15T03:01:18;1024.21;;;7.88;33.63
46886;BME280;32622;48.202;11.326;2024-02-15T03:03:20;1024.16;;;8.08;33.81
46886;BME280;32622;48.202;11.326;2024-02-15T03:05:22;1024.13;;;8.23;33.71
46886;BME280;32622;48.202;11.326;2024-02-15T03:07:24;1024.27;;;7.74;33.77
46886;BME280;32622;48.202;11.326;2024-02-15T03:09:26;1024.19;;;8.16;33.65
46886;BME280;32622;48.202;11.326;2024-02-15T03:11:28;1024.22;;;8.09;33.79
46886;BME280;32622;48.202;11.326;2024-02-15T03:13:30;1024.16;;;8.29;33.69
46886;BME280;32622;48.202;11.326;2024-02-15T03:15:32;1024.16;;;8.22;33.45
46886;BME280;32622;48.202;11.326;2024-02-15T03:17:34;1024.15;;;8.20;33.58
46886;BME280;32622;48.202;11.326;2024-02-15T03:19:36;1024.21;;;8.00;33.64
46886;BME280;32622;48.202;11.326;2024-02-15T03:21:39;1024.16;;;8.06;33.62
46886;BME280;32622;48.202;11.326;2024-02-15T03:23:41;1024.20;;;7.86;33.72
46886;BME280;32622;48.202;11.326;2024-02-15T03:25:43;1024.23;;;7.77;33.98
46886;BME280;32622;48.202;11.326;2024-02-15T03:27:45;1024.00;;;8.79;33.39
46886;BME280;32622;48.202;11.326;2024-02-15T03:29:47;1024.24;;;7.70;33.41
46886;BME280;32622;48.202;11.326;2024-02-15T03:31:49;1024.23;;;7.95;33.48
46886;BME280;32622;48.202;11.326;2024-02-15T03:33:51;1024.21;;;7.97;33.60
46886;BME280;32622;48.202;11.326;2024-02-15T03:35:53;1024.18;;;7.98;33.52
46886;BME280;32622;48.202;11.326;2024-02-15T03:37:55;1024.21;;;7.90;33.48
46886;BME280;32622;48.202;11.326;2024-02-15T03:39:57;1024.17;;;8.14;33.16
46886;BME280;32622;48.202;11.326;2024-02-15T03:41:59;1024.25;;;7.82;33.41
46886;BME280;32622;48.202;11.326;2024-02-15T03:44:02;1024.28;;;7.71;33.32
46886;BME280;32622;48.202;11.326;2024-02-15T03:46:04;1024.29;;;7.78;33.25
46886;BME280;32622;48.202;11.326;2024-02-15T03:48:06;1024.24;;;8.00;32.89
46886;BME280;32622;48.202;11.326;2024-02-15T03:50:09;1024.29;;;7.82;33.02
46886;BME280;32622;48.202;11.326;2024-02-15T03:52:11;1024.34;;;7.69;33.21
46886;BME280;32622;48.202;11.326;2024-02-15T03:54:13;1024.31;;;8.00;33.11
46886;BME280;32622;48.202;11.326;2024-02-15T03:56:15;1024.38;;;7.65;33.11
46886;BME280;32622;48.202;11.326;2024-02-15T03:58:17;1024.41;;;7.49;33.18
46886;BME280;32622;48.202;11.326;2024-02-15T04:00:19;1024.48;;;7.31;33.31
46886;BME280;32622;48.202;11.326;2024-02-15T04:02:22;1024.47;;;7.31;33.30
46886;BME280;32622;48.202;11.326;2024-02-15T04:04:24;1024.34;;;7.81;33.27
46886;BME280;32622;48.202;11.326;2024-02-15T04:06:26;1024.36;;;7.72;33.45
46886;BME280;32622;48.202;11.326;2024-02-15T04:08:29;1024.35;;;7.68;33.46
46886;BME280;32622;48.202;11.326;2024-02-15T04:10:31;1024.35;;;7.65;33.54
46886;BME280;32622;48.202;11.326;2024-02-15T04:12:33;1024.46;;;7.29;33.50
46886;BME280;32622;48.202;11.326;2024-02-15T04:14:35;1024.53;;;7.10;33.66
46886;BME280;32622;48.202;11.326;2024-02-15T04:16:37;1024.50;;;7.37;33.81
46886;BME280;32622;48.202;11.326;2024-02-15T04:18:39;1024.54;;;7.18;33.61
46886;BME280;32622;48.202;11.326;2024-02-15T04:20:41;1024.61;;;7.05;33.73
46886;BME280;32622;48.202;11.326;2024-02-15T04:22:43;1024.59;;;6.99;33.83
46886;BME280;32622;48.202;11.326;2024-02-15T04:24:46;1024.50;;;7.30;33.66
46886;BME280;32622;48.202;11.326;2024-02-15T04:26:48;1024.52;;;7.32;33.65
46886;BME280;32622;48.202;11.326;2024-02-15T04:28:50;1024.60;;;6.96;33.66
46886;BME280;32622;48.202;11.326;2024-02-15T04:30:52;1024.47;;;7.56;33.75
46886;BME280;32622;48.202;11.326;2024-02-15T04:32:54;1024.61;;;6.88;34.03
46886;BME280;32622;48.202;11.326;2024-02-15T04:34:56;1024.60;;;6.99;33.97
46886;BME280;32622;48.202;11.326;2024-02-15T04:36:58;1024.48;;;7.56;33.69
46886;BME280;32622;48.202;11.326;2024-02-15T04:39:01;1024.60;;;6.99;33.81
46886;BME280;32622;48.202;11.326;2024-02-15T04:41:03;1024.57;;;7.05;33.75
46886;BME280;32622;48.202;11.326;2024-02-15T04:43:06;1024.55;;;6.99;33.77
46886;BME280;32622;48.202;11.326;2024-02-15T04:45:09;1024.50;;;7.18;33.74
46886;BME280;32622;48.202;11.326;2024-02-15T04:47:11;1024.59;;;6.75;33.82
46886;BME280;32622;48.202;11.326;2024-02-15T04:49:13;1024.56;;;6.91;33.74
46886;BME280;32622;48.202;11.326;2024-02-15T04:51:15;1024.58;;;6.89;33.54
46886;BME280;32622;48.202;11.326;2024-02-15T04:53:18;1024.52;;;7.18;33.53
46886;BME280;32622;48.202;11.326;2024-02-15T04:55:20;1024.68;;;6.60;33.71
46886;BME280;32622;48.202;11.326;2024-02-15T04:57:22;1024.76;;;6.24;33.61
46886;BME280;32622;48.202;11.326;2024-02-15T04:59:24;1024.79;;;6.06;33.74
46886;BME280;32622;48.202;11.326;2024-02-15T05:01:26;1024.69;;;6.40;33.80
46886;BME280;32622;48.202;11.326;2024-02-15T05:03:29;1024.62;;;6.65;33.46
46886;BME280;32622;48.202;11.326;2024-02-15T05:05:31;1024.57;;;6.90;33.29
46886;BME280;32622;48.202;11.326;2024-02-15T05:07:33;1024.74;;;6.16;33.33
46886;BME280;32622;48.202;11.326;2024-02-15T05:09:35;1024.76;;;6.29;33.55
46886;BME280;32622;48.202;11.326;2024-02-15T05:11:37;1024.84;;;6.03;33.81
46886;BME280;32622;48.202;11.326;2024-02-15T05:13:40;1024.89;;;5.80;33.99
46886;BME280;32622;48.202;11.326;2024-02-15T05:15:42;1024.87;;;5.85;33.77
46886;BME280;32622;48.202;11.326;2024-02-15T05:17:44;1024.89;;;5.72;33.92
46886;BME280;32622;48.202;11.326;2024-02-15T05:19:46;1024.73;;;6.37;34.07
46886;BME280;32622;48.202;11.326;2024-02-15T05:21:48;1024.77;;;6.19;34.18
46886;BME280;32622;48.202;11.326;2024-02-15T05:23:50;1024.77;;;6.12;34.11
46886;BME280;32622;48.202;11.326;2024-02-15T05:25:53;1024.78;;;6.12;33.89
46886;BME280;32622;48.202;11.326;2024-02-15T05:27:55;1024.82;;;5.92;33.79
46886;BME280;32622;48.202;11.326;2024-02-15T05:29:57;1024.74;;;6.24;33.88
46886;BME280;32622;48.202;11.326;2024-02-15T05:31:59;1024.84;;;5.82;33.84
46886;BME280;32622;48.202;11.326;2024-02-15T05:34:02;1024.82;;;5.77;33.70
46886;BME280;32622;48.202;11.326;2024-02-15T05:36:04;1024.76;;;6.00;33.98
46886;BME280;32622;48.202;11.326;2024-02-15T05:38:06;1024.74;;;5.99;33.84
46886;BME280;32622;48.202;11.326;2024-02-15T05:40:09;1024.81;;;5.64;33.86
46886;BME280;32622;48.202;11.326;2024-02-15T05:42:11;1024.78;;;5.83;33.97
46886;BME280;32622;48.202;11.326;2024-02-15T05:44:13;1024.80;;;5.69;33.99
46886;BME280;32622;48.202;11.326;2024-02-15T05:46:15;1024.80;;;5.70;33.94
46886;BME280;32622;48.202;11.326;2024-02-15T05:48:17;1024.95;;;5.18;34.16
46886;BME280;32622;48.202;11.326;2024-02-15T05:50:20;1024.90;;;5.50;34.13
46886;BME280;32622;48.202;11.326;2024-02-15T05:52:22;1024.91;;;5.46;34.07
46886;BME280;32622;48.202;11.326;2024-02-15T05:54:24;1024.93;;;5.43;34.24
46886;BME280;32622;48.202;11.326;2024-02-15T05:56:26;1024.84;;;5.70;34.27
46886;BME280;32622;48.202;11.326;2024-02-15T05:58:29;1024.91;;;5.20;34.36
46886;BME280;32622;48.202;11.326;2024-02-15T06:00:31;1024.98;;;4.97;34.38
46886;BME280;32622;48.202;11.326;2024-02-15T06:02:33;1024.91;;;5.11;34.39
46886;BME280;32622;48.202;11.326;2024-02-15T06:04:35;1024.96;;;5.05;34.21
46886;BME280;32622;48.202;11.326;2024-02-15T06:06:37;1024.99;;;5.01;34.26
46886;BME280;32622;48.202;11.326;2024-02-15T06:08:39;1025.01;;;5.05;34.25
46886;BME280;32622;48.202;11.326;2024-02-15T06:10:41;1025.11;;;4.69;34.68
46886;BME280;32622;48.202;11.326;2024-02-15T06:12:43;1025.02;;;5.22;34.56
46886;BME280;32622;48.202;11.326;2024-02-15T06:14:46;1025.07;;;4.99;34.36
46886;BME280;32622;48.202;11.326;2024-02-15T06:16:48;1025.11;;;4.93;34.53
46886;BME280;32622;48.202;11.326;2024-02-15T06:18:50;1025.12;;;4.94;34.42
46886;BME280;32622;48.202;11.326;2024-02-15T06:20:52;1025.13;;;4.92;34.30
46886;BME280;32622;48.202;11.326;2024-02-15T06:22:54;1025.16;;;4.89;34.52
46886;BME280;32622;48.202;11.326;2024-02-15T06:24:56;1025.16;;;4.84;34.63
46886;BME280;32622;48.202;11.326;2024-02-15T06:26:58;1025.19;;;4.90;34.57
46886;BME280;32622;48.202;11.326;2024-02-15T06:29:00;1025.15;;;5.08;34.63
46886;BME280;32622;48.202;11.326;2024-02-15T06:31:03;1025.25;;;4.66;34.62
46886;BME280;32622;48.202;11.326;2024-02-15T06:33:05;1025.29;;;4.55;34.68
46886;BME280;32622;48.202;11.326;2024-02-15T06:35:07;1025.18;;;5.12;34.50
46886;BME280;32622;48.202;11.326;2024-02-15T06:37:09;1025.22;;;5.09;34.62
46886;BME280;32622;48.202;11.326;2024-02-15T06:39:11;1025.27;;;4.98;34.79
46886;BME280;32622;48.202;11.326;2024-02-15T06:41:13;1025.36;;;4.60;34.75
46886;BME280;32622;48.202;11.326;2024-02-15T06:43:16;1025.28;;;5.11;34.72
46886;BME280;32622;48.202;11.326;2024-02-15T06:45:18;1025.40;;;4.72;34.82
46886;BME280;32622;48.202;11.326;2024-02-15T06:47:20;1025.25;;;5.45;34.83
46886;BME280;32622;48.202;11.326;2024-02-15T06:49:23;1025.30;;;5.31;34.54
46886;BME280;32622;48.202;11.326;2024-02-15T06:51:25;1025.37;;;4.99;34.50
46886;BME280;32622;48.202;11.326;2024-02-15T06:53:27;1025.41;;;4.88;34.58
46886;BME280;32622;48.202;11.326;2024-02-15T06:55:30;1025.32;;;5.08;34.32
46886;BME280;32622;48.202;11.326;2024-02-15T06:57:33;1025.30;;;5.17;34.31
46886;BME280;32622;48.202;11.326;2024-02-15T06:59:35;1025.31;;;5.10;34.35
46886;BME280;32622;48.202;11.326;2024-02-15T07:01:37;1025.34;;;5.01;34.58
46886;BME280;32622;48.202;11.326;2024-02-15T07:03:39;1025.37;;;4.91;34.63
46886;BME280;32622;48.202;11.326;2024-02-15T07:05:42;1025.34;;;5.03;34.59
46886;BME280;32622;48.202;11.326;2024-02-15T07:07:44;1025.31;;;5.26;34.45
46886;BME280;32622;48.202;11.326;2024-02-15T07:09:46;1025.32;;;5.25;34.25
46886;BME280;32622;48.202;11.326;2024-02-15T07:11:48;1025.29;;;5.36;34.16
46886;BME280;32622;48.202;11.326;2024-02-15T07:13:50;1025.32;;;5.29;34.46
46886;BME280;32622;48.202;11.326;2024-02-15T07:15:52;1025.32;;;5.39;34.41
46886;BME280;32622;48.202;11.326;2024-02-15T07:17:54;1025.28;;;5.45;34.52
46886;BME280;32622;48.202;11.326;2024-02-15T07:19:57;1025.18;;;5.58;34.46
46886;BME280;32622;48.202;11.326;2024-02-15T07:21:59;1025.23;;;5.47;34.43
46886;BME280;32622;48.202;11.326;2024-02-15T07:24:01;1025.21;;;5.28;34.34
46886;BME280;32622;48.202;11.326;2024-02-15T07:26:03;1025.05;;;5.91;34.06
46886;BME280;32622;48.202;11.326;2024-02-15T07:28:05;1025.06;;;5.80;34.17
46886;BME280;32622;48.202;11.326;2024-02-15T07:30:08;1025.19;;;5.25;34.04
46886;BME280;32622;48.202;11.326;2024-02-15T07:32:11;1025.06;;;5.75;34.07
46886;BME280;32622;48.202;11.326;2024-02-15T07:34:13;1024.94;;;6.12;33.96
46886;BME280;32622;48.202;11.326;2024-02-15T07:36:18;1024.96;;;6.07;33.83
46886;BME280;32622;48.202;11.326;2024-02-15T07:38:20;1024.78;;;6.66;33.21
46886;BME280;32622;48.202;11.326;2024-02-15T07:40:23;1024.93;;;6.13;33.34
46886;BME280;32622;48.202;11.326;2024-02-15T07:42:25;1024.67;;;7.09;33.44
46886;BME280;32622;48.202;11.326;2024-02-15T07:44:27;1024.74;;;6.65;33.53
46886;BME280;32622;48.202;11.326;2024-02-15T07:46:29;1024.73;;;6.72;33.13
46886;BME280;32622;48.202;11.326;2024-02-15T07:48:31;1024.77;;;6.40;33.65
46886;BME280;32622;48.202;11.326;2024-02-15T07:50:33;1024.80;;;6.37;33.73
46886;BME280;32622;48.202;11.326;2024-02-15T07:52:35;1024.80;;;6.32;33.77
46886;BME280;32622;48.202;11.326;2024-02-15T07:54:37;1024.75;;;6.37;33.83
46886;BME280;32622;48.202;11.326;2024-02-15T07:56:40;1024.53;;;7.31;32.86
46886;BME280;32622;48.202;11.326;2024-02-15T07:58:43;1024.53;;;7.32;33.00
46886;BME280;32622;48.202;11.326;2024-02-15T08:00:46;1024.60;;;6.92;33.31
46886;BME280;32622;48.202;11.326;2024-02-15T08:02:48;1024.59;;;7.01;33.49
46886;BME280;32622;48.202;11.326;2024-02-15T08:04:50;1024.62;;;6.93;33.55
46886;BME280;32622;48.202;11.326;2024-02-15T08:06:52;1024.61;;;6.91;33.55
46886;BME280;32622;48.202;11.326;2024-02-15T08:08:54;1024.51;;;7.23;33.35
46886;BME280;32622;48.202;11.326;2024-02-15T08:10:56;1024.43;;;7.72;32.82
46886;BME280;32622;48.202;11.326;2024-02-15T08:12:58;1024.45;;;7.58;33.02
46886;BME280;32622;48.202;11.326;2024-02-15T08:15:01;1024.48;;;7.22;33.55
46886;BME280;32622;48.202;11.326;2024-02-15T08:17:03;1024.43;;;7.44;33.20
46886;BME280;32622;48.202;11.326;2024-02-15T08:19:05;1024.46;;;7.14;33.09
46886;BME280;32622;48.202;11.326;2024-02-15T08:21:07;1024.29;;;7.70;33.17
46886;BME280;32622;48.202;11.326;2024-02-15T08:23:09;1024.30;;;7.43;32.82
46886;BME280;32622;48.202;11.326;2024-02-15T08:25:12;1024.19;;;7.77;32.63
46886;BME280;32622;48.202;11.326;2024-02-15T08:27:14;1024.16;;;7.82;32.56
46886;BME280;32622;48.202;11.326;2024-02-15T08:29:16;1024.24;;;7.65;32.69
46886;BME280;32622;48.202;11.326;2024-02-15T08:31:21;1024.12;;;8.11;32.20
46886;BME280;32622;48.202;11.326;2024-02-15T08:33:24;1024.11;;;8.04;32.49
46886;BME280;32622;48.202;11.326;2024-02-15T08:35:26;1024.03;;;8.17;32.11
46886;BME280;32622;48.202;11.326;2024-02-15T08:37:28;1023.88;;;8.68;31.93
46886;BME280;32622;48.202;11.326;2024-02-15T08:39:30;1023.99;;;8.07;32.28
46886;BME280;32622;48.202;11.326;2024-02-15T08:41:32;1023.86;;;8.65;31.56
46886;BME280;32622;48.202;11.326;2024-02-15T08:43:34;1023.74;;;9.05;31.54
46886;BME280;32622;48.202;11.326;2024-02-15T08:45:37;1023.67;;;9.24;31.45
46886;BME280;32622;48.202;11.326;2024-02-15T08:47:40;1023.68;;;9.27;31.59
46886;BME280;32622;48.202;11.326;2024-02-15T08:49:42;1023.66;;;9.41;31.22
46886;BME280;32622;48.202;11.326;2024-02-15T08:51:44;1023.74;;;9.14;31.25
46886;BME280;32622;48.202;11.326;2024-02-15T08:53:46;1023.80;;;8.80;31.43
46886;BME280;32622;48.202;11.326;2024-02-15T08:55:48;1023.76;;;9.09;31.22
46886;BME280;32622;48.202;11.326;2024-02-15T08:57:50;1023.72;;;9.22;31.37
46886;BME280;32622;48.202;11.326;2024-02-15T08:59:52;1023.60;;;9.69;31.11
46886;BME280;32622;48.202;11.326;2024-02-15T09:01:55;1023.64;;;9.34;30.92
46886;BME280;32622;48.202;11.326;2024-02-15T09:03:57;1023.62;;;9.53;30.82
46886;BME280;32622;48.202;11.326;2024-02-15T09:05:59;1023.64;;;9.38;30.72
46886;BME280;32622;48.202;11.326;2024-02-15T09:08:02;1023.46;;;10.06;30.44
46886;BME280;32622;48.202;11.326;2024-02-15T09:10:05;1023.56;;;9.65;30.82
46886;BME280;32622;48.202;11.326;2024-02-15T09:12:08;1023.60;;;9.48;31.16
46886;BME280;32622;48.202;11.326;2024-02-15T09:14:10;1023.50;;;9.85;30.63
46886;BME280;32622;48.202;11.326;2024-02-15T09:16:12;1023.57;;;9.48;30.76
46886;BME280;32622;48.202;11.326;2024-02-15T09:18:14;1023.38;;;10.15;30.73
46886;BME280;32622;48.202;11.326;2024-02-15T09:20:17;1023.32;;;10.29;30.63
46886;BME280;32622;48.202;11.326;2024-02-15T09:22:19;1023.24;;;10.49;30.55
46886;BME280;32622;48.202;11.326;2024-02-15T09:24:21;1023.32;;;9.86;30.58
46886;BME280;32622;48.202;11.326;2024-02-15T09:26:24;1023.19;;;10.21;30.57
46886;BME280;32622;48.202;11.326;2024-02-15T09:28:26;1023.03;;;10.73;30.37
46886;BME280;32622;48.202;11.326;2024-02-15T09:30:28;1023.25;;;9.64;30.65
46886;BME280;32622;48.202;11.326;2024-02-15T09:32:30;1023.16;;;9.92;30.59
46886;BME280;32622;48.202;11.326;2024-02-15T09:34:32;1023.09;;;10.18;30.32
46886;BME280;32622;48.202;11.326;2024-02-15T09:36:34;1022.92;;;10.83;30.47
46886;BME280;32622;48.202;11.326;2024-02-15T09:38:37;1022.79;;;11.26;30.25
46886;BME280;32622;48.202;11.326;2024-02-15T09:40:40;1022.96;;;10.46;30.15
46886;BME280;32622;48.202;11.326;2024-02-15T09:42:42;1022.99;;;10.13;30.54
46886;BME280;32622;48.202;11.326;2024-02-15T09:44:45;1022.88;;;10.37;31.12
46886;BME280;32622;48.202;11.326;2024-02-15T09:46:51;1022.87;;;10.06;31.33
46886;BME280;32622;48.202;11.326;2024-02-15T09:48:57;1022.74;;;10.66;30.92
46886;BME280;32622;48.202;11.326;2024-02-15T09:51:00;1022.79;;;10.43;31.18
46886;BME280;32622;48.202;11.326;2024-02-15T09:53:04;1022.71;;;10.83;30.50
46886;BME280;32622;48.202;11.326;2024-02-15T09:55:07;1022.59;;;11.19;30.60
46886;BME280;32622;48.202;11.326;2024-02-15T09:57:10;1022.61;;;11.07;30.47
46886;BME280;32622;48.202;11.326;2024-02-15T09:59:13;1022.67;;;10.86;29.95
46886;BME280;32622;48.202;11.326;2024-02-15T10:01:15;1022.92;;;9.83;31.30
46886;BME280;32622;48.202;11.326;2024-02-15T10:03:19;1022.89;;;10.14;31.71
46886;BME280;32622;48.202;11.326;2024-02-15T10:05:21;1022.87;;;10.18;31.73
46886;BME280;32622;48.202;11.326;2024-02-15T10:07:24;1022.96;;;9.83;33.44
46886;BME280;32622;48.202;11.326;2024-02-15T10:09:27;1023.19;;;9.10;34.80
46886;BME280;32622;48.202;11.326;2024-02-15T10:11:29;1023.03;;;9.56;33.97
46886;BME280;32622;48.202;11.326;2024-02-15T10:13:31;1022.77;;;10.28;33.30
46886;BME280;32622;48.202;11.326;2024-02-15T10:15:35;1022.96;;;9.42;33.63
46886;BME280;32622;48.202;11.326;2024-02-15T10:17:37;1022.87;;;9.67;34.04
46886;BME280;32622;48.202;11.326;2024-02-15T10:19:39;1022.58;;;10.60;33.07
46886;BME280;32622;48.202;11.326;2024-02-15T10:21:41;1022.82;;;9.64;33.26
46886;BME280;32622;48.202;11.326;2024-02-15T10:23:43;1022.72;;;10.09;32.22
46886;BME280;32622;48.202;11.326;2024-02-15T10:25:47;1022.62;;;10.57;32.29
46886;BME280;32622;48.202;11.326;2024-02-15T10:27:49;1022.74;;;9.90;32.27
46886;BME280;32622;48.202;11.326;2024-02-15T10:29:51;1022.58;;;10.45;33.14
46886;BME280;32622;48.202;11.326;2024-02-15T10:31:54;1022.51;;;10.59;32.56
46886;BME280;32622;48.202;11.326;2024-02-15T10:34:03;1022.44;;;10.54;32.68
46886;BME280;32622;48.202;11.326;2024-02-15T10:36:06;1022.42;;;10.39;32.97
46886;BME280;32622;48.202;11.326;2024-02-15T10:38:09;1022.56;;;9.88;33.91
46886;BME280;32622;48.202;11.326;2024-02-15T10:40:13;1022.58;;;9.72;34.10
46886;BME280;32622;48.202;11.326;2024-02-15T10:42:16;1022.43;;;10.33;33.72
46886;BME280;32622;48.202;11.326;2024-02-15T10:44:20;1022.26;;;10.77;32.78
46886;BME280;32622;48.202;11.326;2024-02-15T10:46:22;1022.31;;;10.51;32.86
46886;BME280;32622;48.202;11.326;2024-02-15T10:48:25;1022.30;;;10.41;33.46
46886;BME280;32622;48.202;11.326;2024-02-15T10:50:27;1022.27;;;10.44;33.29
46886;BME280;32622;48.202;11.326;2024-02-15T10:52:31;1022.25;;;10.46;32.92
46886;BME280;32622;48.202;11.326;2024-02-15T10:54:41;1022.09;;;10.92;32.52
46886;BME280;32622;48.202;11.326;2024-02-15T10:56:51;1022.07;;;10.72;32.68